KPOC/POC METAR and TAF weather

Enter ICAO airport designator
Station Type Date Time Source
KPOC METAR 2019/08/22 03:47 UTC NOAA

KPOC 220347Z 26006KT 10SM CLR 25/11 A2980 RMK LAST


Station Type Date Time Source
KPOC Decoded METAR 2019/08/22 03:47 UTC NOAA

Station name not available
Aug 21, 2019 - 11:47 PM EDT / 2019.08.22 0347 UTC
Wind: from the W (260 degrees) at 7 MPH (6 KT):0
Visibility: 10 mile(s):0
Sky conditions: clear
Temperature: 77 F (25 C)
Dew Point: 51 F (11 C)
Relative Humidity: 41%
Pressure (altimeter): 29.8 in. Hg (1009 hPa)
ob: KPOC 220347Z 26006KT 10SM CLR 25/11 A2980 RMK LAST
cycle: 4

Station Type Date Time Source
KPOC TAF UTC NOAA

Error!

Example: see airport list